LEXJLEBB

Guest
Details From LEXJ - Santander
To LEBB - Bilbao
Flight Number -
Tags Generated
Created
Modified
Stats Distance 40 nm / 74 km
Max Altitude 0 ft / 0 m
Waypoints 2
Social Downloads 1
Likes 0
Share VATSIM

Download

Looking for another format? Having issues loading an existing format? Contact us
Advertisement - Login to hide

Notes

Generated

Route

LEXJ LEBB

ID Type Via Altitude Latitude Longitude Leg Dist Tot Dist Heading (true) Name
O LEXJ APT - 0 ft / 0 m 43.43078˚ -3.83392˚ - 0 nm - -
O LEBB APT - 0 ft / 0 m 43.30335˚ -2.93703˚ 39 nm 39 nm 101° / 101° -

Altitude Profile

Advertisement - Login to hide

LEXJ

Details ICAO LEXJ (SDR)
Name Santander
Region Spain
Timezone Europe/Madrid (UTC+1.0)
Stats Elevation 16 ft / 5 m (AMSL)
Location 43.427188° -3.820470°
Runways 1
Magnetic Variation 0.912° W

METAR

LEXJ 181500Z 22009KT 190V250 9999 OVC015 10/09 Q1031

Decode

TAF

TAF LEXJ 181400Z 1815/1915 29009KT 9999 SCT015 BKN025 TX13/1822Z TN05/1907Z TEMPO 1815/1824 33015G30KT TEMPO 1815/1824 3000 RA BKN010 BKN014 PROB30 TEMPO 1821/1906 1500 BR BCFG BKN002

Decode

Departure Runways

ID Width Length Bearing (true) Bearing (mag) Surface Threshold Offset Overrun Length
11 148 ft / 45 m 7,597 ft / 2,316 m 110.20° 111.11° Asphalt 0 ft / 0 m 98 ft / 30 m
29 148 ft / 45 m 7,597 ft / 2,316 m 290.22° 291.13° Asphalt 0 ft / 0 m 0 ft / 0 m

LEBB

Details ICAO LEBB (BIO)
Name Bilbao
Region Spain
Timezone Europe/Madrid (UTC+1.0)
Stats Elevation 137 ft / 42 m (AMSL)
Location 43.301692° -2.917664°
Runways 2
Magnetic Variation 0.628° W

METAR

LEBB 181500Z 14003KT 9999 BKN020 09/08 Q1030 TEMPO 3000 RA BKN012

Decode

TAF

TAF LEBB 181100Z 1812/1912 31009KT 9999 SCT020 BKN030 TX13/1815Z TN06/1908Z TEMPO 1815/1821 33015G30KT TEMPO 1812/1824 3000 RA BKN008 BKN014 PROB40 TEMPO 1821/1906 0700 BCFG VV002

Decode

Destination Runways

ID Width Length Bearing (true) Bearing (mag) Surface Threshold Offset Overrun Length
10 148 ft / 45 m 6,569 ft / 2,002 m 96.66° 97.29° Asphalt 20 ft / 6 m 184 ft / 56 m
12 148 ft / 45 m 8,539 ft / 2,603 m 116.73° 117.36° Asphalt 20 ft / 6 m 197 ft / 60 m
28 148 ft / 45 m 6,569 ft / 2,002 m 276.68° 277.31° Asphalt 23 ft / 7 m 0 ft / 0 m
30 148 ft / 45 m 8,539 ft / 2,603 m 296.75° 297.38° Asphalt 1,509 ft / 460 m 171 ft / 52 m

Approach Navaids

Runway Type Ident Frequency Range Bearing (true) Bearing (mag) Slope Elevation
12 Localiser IBO 111.55 MHz 20 nm / 37 km 116.74° 117.37° - 113 ft / 34 m (AMSL)
12 Glidescope IBO 111.55 MHz 10 nm / 19 km 116.74° 117.37° 3.10° 133 ft / 41 m (AMSL)
12 DME IBO 111.55 MHz 13 nm / 24 km - - - 133 ft / 41 m (AMSL)
30 Localiser IBL 110.30 MHz 20 nm / 37 km 296.74° 297.37° - 106 ft / 32 m (AMSL)
30 Glidescope IBL 110.30 MHz 10 nm / 19 km 296.74° 297.37° 3.40° 133 ft / 41 m (AMSL)
30 DME IBL 110.30 MHz 13 nm / 24 km - - - 132 ft / 40 m (AMSL)

Popular Alternatives